Time;durP1;ratioP1;P1;durP2;ratioP2;P2;SDS_P1;SDS_P2;PMS_P1;PMS_P2;Temp;Humidity;BMP_temperature;BMP_pressure;BME280_temperature;BME280_humidity;BME280_pressure;Samples;Min_cycle;Max_cycle;Signal;HPM_P1;HPM_P2
2022/10/21 00:02:14;;;;;;;18.57;2.13;;;;;;;19.29;nan;101230.81;6197315;23;20477;-94
2022/10/21 00:04:44;;;;;;;20.83;2.80;;;;;;;19.29;nan;101228.06;6196929;23;20525;-95
2022/10/21 00:07:11;;;;;;;20.17;2.63;;;;;;;19.24;nan;101231.53;6196726;23;20541;-95
2022/10/21 00:09:39;;;;;;;19.63;3.10;;;;;;;19.26;nan;101229.38;6197111;23;20513;-95
2022/10/21 00:12:06;;;;;;;14.97;3.00;;;;;;;19.29;nan;101236.38;6077885;23;20411;-93
2022/10/21 00:14:34;;;;;;;17.63;2.47;;;;;;;19.26;nan;101231.31;6053989;23;20414;-93
2022/10/21 00:17:03;;;;;;;15.90;1.77;;;;;;;19.20;nan;101227.59;6054634;23;20420;-93
2022/10/21 00:19:32;;;;;;;16.93;2.10;;;;;;;19.16;nan;101226.38;6101756;23;20406;-93
2022/10/21 00:21:59;;;;;;;21.13;3.10;;;;;;;19.19;nan;101225.88;6078093;23;20930;-94
2022/10/21 00:24:27;;;;;;;24.17;2.33;;;;;;;19.12;nan;101230.69;6054052;23;20434;-93
2022/10/21 00:26:55;;;;;;;22.10;3.40;;;;;;;19.10;nan;101230.09;6054083;23;20784;-96
2022/10/21 00:29:22;;;;;;;17.47;2.40;;;;;;;19.16;nan;101233.84;6070160;23;20412;-95
2022/10/21 00:31:53;;;;;;;20.67;2.73;;;;;;;19.12;nan;101236.22;6196894;23;20415;-95
2022/10/21 00:34:21;;;;;;;24.83;3.03;;;;;;;19.09;nan;101235.84;6196435;23;20402;-95
2022/10/21 00:36:52;;;;;;;17.03;2.77;;;;;;;19.04;nan;101233.81;6198127;23;20403;-96
2022/10/21 00:39:20;;;;;;;16.80;2.90;;;;;;;19.02;nan;101230.44;6221297;23;20409;-95
2022/10/21 00:41:47;;;;;;;23.57;3.50;;;;;;;19.02;nan;101238.75;6196076;23;20415;-94
2022/10/21 00:44:15;;;;;;;24.97;2.60;;;;;;;18.98;nan;101230.06;6196323;23;20438;-95
2022/10/21 00:47:07;;;;;;;20.77;2.80;;;;;;;18.95;nan;101230.53;6196773;23;20721;-95
2022/10/21 00:49:39;;;;;;;26.03;3.27;;;;;;;18.92;nan;101231.00;6245814;23;20398;-95
2022/10/21 00:52:11;;;;;;;13.60;2.10;;;;;;;18.92;nan;101239.31;6196527;23;20410;-95
2022/10/21 00:54:38;;;;;;;14.00;2.83;;;;;;;18.88;nan;101228.94;6196638;23;20394;-95
2022/10/21 01:01:11;;;;;;;17.20;3.50;;;;;;;18.82;nan;101239.06;6243218;23;20418;-95
2022/10/21 01:03:42;;;;;;;16.13;2.50;;;;;;;18.81;nan;101234.59;6174125;23;20406;-95
2022/10/21 01:06:10;;;;;;;13.13;2.00;;;;;;;18.87;nan;101238.31;6171374;23;20410;-93
2022/10/21 01:08:38;;;;;;;16.47;2.50;;;;;;;18.84;nan;101234.13;6181826;23;20404;-94
2022/10/21 01:11:08;;;;;;;11.73;2.10;;;;;;;18.77;nan;101224.22;6168394;23;20463;-95
2022/10/21 01:14:04;;;;;;;19.47;2.77;;;;;;;18.74;nan;101221.94;6196737;23;20908;-95
2022/10/21 01:16:44;;;;;;;16.30;2.40;;;;;;;18.72;nan;101224.09;6245917;23;20403;-95
2022/10/21 01:19:40;;;;;;;14.50;2.47;;;;;;;18.70;nan;101226.25;6197280;23;20399;-94
2022/10/21 01:22:35;;;;;;;12.53;2.87;;;;;;;18.69;nan;101230.09;6225224;23;20403;-95
2022/10/21 01:25:15;;;;;;;13.23;2.23;;;;;;;18.67;nan;101238.63;6246876;22;20441;-94
2022/10/21 01:28:04;;;;;;;16.20;3.43;;;;;;;18.63;nan;101231.91;6220581;23;20796;-93
2022/10/21 01:30:35;;;;;;;17.07;2.57;;;;;;;18.55;nan;101224.72;6245604;23;20402;-94
2022/10/21 01:33:07;;;;;;;17.80;2.80;;;;;;;18.51;nan;101217.94;6196386;23;20397;-95
2022/10/21 01:35:35;;;;;;;23.63;2.73;;;;;;;18.53;nan;101221.34;6220759;23;20398;-96
2022/10/21 01:38:24;;;;;;;17.63;2.70;;;;;;;18.49;nan;101220.09;6245844;23;20410;-93
2022/10/21 01:41:00;;;;;;;16.90;2.07;;;;;;;18.47;nan;101222.25;6224049;23;20414;-95
2022/10/21 01:43:47;;;;;;;15.30;2.33;;;;;;;18.46;nan;101220.59;6220802;23;20417;-95
2022/10/21 01:46:36;;;;;;;17.93;2.40;;;;;;;18.47;nan;101222.25;6224754;23;20780;-94
2022/10/21 01:49:11;;;;;;;19.57;2.43;;;;;;;18.46;nan;101209.53;6245614;23;20415;-93
2022/10/21 01:51:39;;;;;;;13.93;1.90;;;;;;;18.45;nan;101213.38;6195967;23;20488;-96
2022/10/21 01:54:11;;;;;;;21.53;2.67;;;;;;;18.44;nan;101211.69;6195696;23;20418;-95
2022/10/21 01:56:39;;;;;;;18.27;2.40;;;;;;;18.35;nan;101196.47;6196157;23;20414;-95
2022/10/21 01:59:08;;;;;;;17.30;2.00;;;;;;;18.40;nan;101198.53;6196343;23;20729;-95
2022/10/21 02:01:35;;;;;;;12.93;2.00;;;;;;;18.41;nan;101200.22;6195666;23;20937;-93
2022/10/21 02:04:03;;;;;;;13.10;2.00;;;;;;;18.40;nan;101199.38;6195690;23;20410;-93
2022/10/21 02:06:30;;;;;;;14.63;1.93;;;;;;;18.38;nan;101190.47;6195971;23;20409;-96
2022/10/21 02:08:58;;;;;;;13.80;2.40;;;;;;;18.31;nan;101178.63;6196141;23;20721;-95
2022/10/21 02:11:25;;;;;;;29.90;2.97;;;;;;;18.34;nan;101193.94;6195720;23;20394;-96
2022/10/21 02:14:17;;;;;;;22.67;1.80;;;;;;;18.33;nan;101198.63;6196350;23;20414;-95
2022/10/21 02:16:45;;;;;;;20.60;2.07;;;;;;;18.29;nan;101189.94;6198110;23;20403;-95
2022/10/21 02:19:17;;;;;;;23.77;2.60;;;;;;;18.26;nan;101178.53;6196122;23;20395;-96
2022/10/21 02:21:46;;;;;;;16.13;2.93;;;;;;;18.27;nan;101194.03;6196377;23;20482;-95
2022/10/21 02:24:20;;;;;;;14.90;2.03;;;;;;;18.24;nan;101177.91;6245283;23;20917;-95
2022/10/21 02:26:48;;;;;;;10.40;1.80;;;;;;;18.28;nan;101190.16;6196794;23;20395;-95
2022/10/21 02:29:16;;;;;;;15.23;2.67;;;;;;;18.21;nan;101173.69;6195561;23;20429;-94
2022/10/21 02:31:47;;;;;;;16.13;2.63;;;;;;;18.24;nan;101184.28;6196230;23;20376;-95
2022/10/21 02:34:29;;;;;;;31.80;3.57;;;;;;;18.26;nan;101181.28;6220916;23;20402;-95
2022/10/21 02:37:06;;;;;;;29.03;2.63;;;;;;;18.28;nan;101184.63;6220526;23;20408;-95
2022/10/21 02:39:37;;;;;;;15.50;3.10;;;;;;;18.28;nan;101184.63;6245433;23;20406;-95
2022/10/21 02:42:06;;;;;;;16.50;2.57;;;;;;;18.27;nan;101169.13;6220255;23;20395;-93
2022/10/21 02:44:33;;;;;;;12.93;2.40;;;;;;;18.23;nan;101174.28;6195193;23;20434;-94
2022/10/21 02:47:02;;;;;;;11.13;2.37;;;;;;;18.20;nan;101162.84;6195637;23;20402;-95
2022/10/21 02:49:29;;;;;;;25.63;3.03;;;;;;;18.26;nan;101164.69;6197990;23;20533;-96
2022/10/21 02:51:57;;;;;;;15.50;3.07;;;;;;;18.22;nan;101157.94;6197216;23;20395;-95
2022/10/21 02:54:25;;;;;;;11.73;2.53;;;;;;;18.18;nan;101157.53;6197248;23;20403;-95
2022/10/21 02:56:52;;;;;;;20.90;2.60;;;;;;;18.18;nan;101146.47;6196553;23;20422;-94
2022/10/21 02:59:20;;;;;;;12.80;3.53;;;;;;;18.18;nan;101157.53;6197766;23;20409;-95
2022/10/21 03:01:49;;;;;;;17.00;3.13;;;;;;;18.12;nan;101152.94;6222366;23;20971;-93
2022/10/21 03:04:17;;;;;;;24.87;3.10;;;;;;;18.10;nan;101155.09;6247470;23;20410;-94
2022/10/21 03:06:44;;;;;;;15.90;2.13;;;;;;;18.15;nan;101162.69;6197231;23;20403;-95
2022/10/21 03:09:11;;;;;;;11.67;2.23;;;;;;;18.06;nan;101153.03;6197372;23;20402;-95
2022/10/21 03:11:40;;;;;;;19.10;2.90;;;;;;;18.08;nan;101161.97;6197824;23;20397;-95
2022/10/21 03:14:07;;;;;;;10.90;2.10;;;;;;;18.08;nan;101157.28;6222299;23;20407;-96
2022/10/21 03:16:36;;;;;;;15.60;2.53;;;;;;;18.06;nan;101153.03;6196891;23;20419;-95
2022/10/21 03:19:03;;;;;;;15.20;1.97;;;;;;;18.04;nan;101155.19;6222254;23;20414;-95
2022/10/21 03:21:30;;;;;;;25.40;3.23;;;;;;;18.04;nan;101149.66;6196674;23;20410;-94
2022/10/21 03:23:58;;;;;;;17.93;3.40;;;;;;;18.05;nan;101154.13;6197193;23;20407;-95
2022/10/21 03:26:25;;;;;;;10.30;2.67;;;;;;;18.06;nan;101147.50;6197359;23;20965;-95
2022/10/21 03:28:53;;;;;;;11.57;2.63;;;;;;;18.03;nan;101153.50;6196633;23;20410;-95
2022/10/21 03:31:22;;;;;;;6.70;2.10;;;;;;;17.99;nan;101139.28;6197168;23;20399;-95
2022/10/21 03:33:49;;;;;;;18.07;2.80;;;;;;;17.96;nan;101148.03;6246713;23;20394;-95
2022/10/21 03:36:19;;;;;;;12.40;2.20;;;;;;;17.97;nan;101144.22;6196797;23;20402;-95
2022/10/21 03:38:47;;;;;;;13.13;2.70;;;;;;;18.00;nan;101152.03;6221343;23;20410;-91
2022/10/21 03:41:14;;;;;;;14.00;2.10;;;;;;;17.97;nan;101137.81;6221819;23;20901;-95
2022/10/21 03:43:41;;;;;;;18.47;2.03;;;;;;;17.93;nan;101138.28;6196238;23;20747;-93
2022/10/21 03:46:09;;;;;;;13.90;2.37;;;;;;;17.90;nan;101133.22;6196685;23;20445;-95
2022/10/21 03:52:19;;;;;;;22.13;2.13;;;;;;;17.83;nan;101151.84;6248212;23;20423;-93
2022/10/21 03:54:47;;;;;;;13.20;2.40;;;;;;;17.85;nan;101157.97;6221770;23;20414;-93
2022/10/21 03:57:14;;;;;;;18.53;3.50;;;;;;;17.85;nan;101174.56;6196899;23;20900;-95
2022/10/21 03:59:42;;;;;;;23.67;3.20;;;;;;;17.72;nan;101163.66;6197350;23;20406;-94
2022/10/21 04:02:12;;;;;;;17.17;3.00;;;;;;;17.78;nan;101172.94;6197755;23;20468;-95
2022/10/21 04:04:41;;;;;;;25.10;3.10;;;;;;;17.77;nan;101174.88;6197114;23;20402;-92
2022/10/21 04:07:09;;;;;;;14.57;2.03;;;;;;;17.78;nan;101176.56;6221695;23;20411;-90
2022/10/21 04:09:36;;;;;;;13.17;2.50;;;;;;;17.77;nan;101171.25;6197194;23;20402;-92
2022/10/21 04:12:04;;;;;;;15.47;2.10;;;;;;;17.73;nan;101170.88;6197435;23;20409;-92
2022/10/21 04:14:31;;;;;;;14.93;3.13;;;;;;;17.72;nan;101174.72;6222615;23;20889;-92
2022/10/21 04:16:59;;;;;;;17.13;2.20;;;;;;;17.80;nan;101181.88;6197198;23;20618;-92
2022/10/21 04:19:34;;;;;;;24.23;3.00;;;;;;;17.81;nan;101176.09;6199776;23;20408;-92
2022/10/21 04:22:02;;;;;;;11.13;1.77;;;;;;;17.78;nan;101156.38;6197071;23;20406;-93
2022/10/21 04:24:29;;;;;;;18.93;3.37;;;;;;;17.80;nan;101155.06;6196981;23;20403;-93
2022/10/21 04:26:57;;;;;;;27.97;3.67;;;;;;;17.77;nan;101147.22;6196653;23;20766;-93
2022/10/21 04:29:24;;;;;;;18.67;2.67;;;;;;;17.74;nan;101144.91;6197311;23;20410;-93
2022/10/21 04:31:52;;;;;;;19.73;2.90;;;;;;;17.78;nan;101178.47;6197000;23;20410;-92
2022/10/21 04:34:24;;;;;;;11.57;2.27;;;;;;;17.77;nan;101188.69;6198947;23;20386;-92
2022/10/21 04:36:52;;;;;;;19.00;2.57;;;;;;;17.77;nan;101191.47;6196168;23;20407;-92
2022/10/21 04:39:19;;;;;;;30.73;2.60;;;;;;;17.80;nan;101204.00;6196472;23;20411;-92
2022/10/21 04:41:49;;;;;;;17.03;2.77;;;;;;;17.77;nan;101188.69;6197386;23;20724;-91
2022/10/21 04:44:17;;;;;;;11.30;2.13;;;;;;;17.78;nan;101190.38;6221685;23;20418;-92
2022/10/21 04:50:52;;;;;;;12.87;3.20;;;;;;;17.80;nan;101215.91;6247633;23;20411;-90
2022/10/21 04:53:21;;;;;;;19.73;2.90;;;;;;;17.79;nan;101192.06;6196472;23;20395;-92
2022/10/21 04:59:35;;;;;;;14.93;2.20;;;;;;;17.79;nan;101202.28;6247452;23;20743;-91
2022/10/21 05:02:03;;;;;;;12.03;3.23;;;;;;;17.85;nan;101201.38;6196159;23;20435;-92
2022/10/21 05:04:30;;;;;;;24.10;2.50;;;;;;;17.81;nan;101189.94;6221109;23;20413;-91
2022/10/21 05:06:57;;;;;;;13.80;2.60;;;;;;;17.76;nan;101184.25;6196544;23;20963;-92
2022/10/21 05:09:25;;;;;;;9.47;2.47;;;;;;;17.85;nan;101199.47;6196748;23;20921;-93
2022/10/21 05:11:52;;;;;;;16.80;3.20;;;;;;;17.86;nan;101203.91;6195590;23;20410;-91
2022/10/21 05:14:20;;;;;;;16.10;2.80;;;;;;;17.87;nan;101200.09;6197020;23;20406;-92
2022/10/21 05:16:48;;;;;;;18.37;3.00;;;;;;;18.00;nan;101220.34;6196640;23;20379;-92
2022/10/21 05:19:16;;;;;;;27.27;3.30;;;;;;;18.03;nan;101206.06;6196141;23;20881;-93
2022/10/21 05:21:45;;;;;;;12.90;3.87;;;;;;;18.02;nan;101196.06;6221115;23;20406;-92
2022/10/21 05:24:15;;;;;;;21.13;3.57;;;;;;;18.09;nan;101202.38;6197162;23;20893;-92
2022/10/21 05:26:43;;;;;;;27.57;3.80;;;;;;;18.13;nan;101209.09;6196970;23;20438;-93
2022/10/21 05:29:12;;;;;;;25.57;3.70;;;;;;;18.13;nan;101225.72;6196147;23;20402;-91
2022/10/21 05:31:39;;;;;;;22.73;3.40;;;;;;;18.11;nan;101212.09;6196190;23;20414;-93
2022/10/21 05:34:08;;;;;;;25.53;3.70;;;;;;;18.14;nan;101216.34;6111983;23;20400;-91
2022/10/21 05:36:37;;;;;;;20.73;3.10;;;;;;;18.18;nan;101217.56;6161072;23;20405;-91
2022/10/21 05:39:10;;;;;;;34.90;4.60;;;;;;;18.19;nan;101219.25;6136759;23;20471;-92
2022/10/21 05:41:40;;;;;;;25.97;3.73;;;;;;;18.21;nan;101215.19;6136284;23;20419;-91
2022/10/21 05:44:10;;;;;;;18.43;3.00;;;;;;;18.28;nan;101223.38;6160668;23;20495;-93
2022/10/21 05:46:38;;;;;;;27.53;3.77;;;;;;;18.30;nan;101224.00;6111835;23;20440;-93
2022/10/21 05:49:07;;;;;;;19.30;2.90;;;;;;;18.30;nan;101219.31;6136082;23;20452;-93
2022/10/21 05:51:34;;;;;;;21.03;2.90;;;;;;;18.40;nan;101238.13;6173474;23;20768;-93
2022/10/21 05:54:04;;;;;;;26.80;4.30;;;;;;;18.39;nan;101230.91;6195595;23;20398;-92
2022/10/21 05:56:32;;;;;;;24.53;4.43;;;;;;;18.45;nan;101235.53;6137144;23;20749;-93
2022/10/21 06:02:40;;;;;;;23.97;3.70;;;;;;;18.46;nan;101209.53;6173909;23;20500;-92
2022/10/21 06:05:08;;;;;;;25.73;3.83;;;;;;;18.50;nan;101213.50;6135345;23;20408;-92
2022/10/21 06:07:36;;;;;;;39.20;4.67;;;;;;;18.55;nan;101230.25;6135455;23;20401;-92
2022/10/21 06:10:04;;;;;;;24.20;4.10;;;;;;;18.58;nan;101224.25;6135437;23;20483;-93
2022/10/21 06:12:34;;;;;;;24.47;4.43;;;;;;;18.59;nan;101225.97;6110564;23;20450;-92
2022/10/21 06:15:02;;;;;;;24.93;5.00;;;;;;;18.56;nan;101231.09;6212453;23;20464;-92
2022/10/21 06:17:29;;;;;;;35.43;3.73;;;;;;;18.56;nan;101237.47;6195969;23;20739;-93
2022/10/21 06:19:59;;;;;;;28.67;5.70;;;;;;;18.52;nan;101230.72;6196134;23;20470;-92
2022/10/21 06:22:28;;;;;;;27.37;4.47;;;;;;;18.60;nan;101255.34;6220915;23;20493;-92
2022/10/21 06:24:56;;;;;;;30.93;3.90;;;;;;;18.54;nan;101238.78;6198604;23;20477;-92
2022/10/21 06:27:24;;;;;;;23.73;4.30;;;;;;;18.56;nan;101248.56;6198004;23;20445;-92
2022/10/21 06:29:51;;;;;;;39.40;4.60;;;;;;;18.62;nan;101247.66;6198183;23;20402;-93
2022/10/21 06:32:19;;;;;;;31.43;4.00;;;;;;;18.54;nan;101236.88;6197086;23;20464;-93
2022/10/21 06:34:47;;;;;;;38.97;4.13;;;;;;;18.60;nan;101249.81;6198173;23;20494;-93
2022/10/21 06:37:15;;;;;;;37.53;4.50;;;;;;;18.55;nan;101229.41;6198016;23;20532;-92
2022/10/21 06:39:43;;;;;;;23.73;4.53;;;;;;;18.60;nan;101235.97;6197427;23;20417;-92
2022/10/21 06:45:52;;;;;;;24.03;3.63;;;;;;;18.56;nan;101245.78;6248870;23;20409;-91
2022/10/21 06:48:19;;;;;;;32.03;3.90;;;;;;;18.49;nan;101247.78;6197166;23;20422;-93
2022/10/21 06:50:47;;;;;;;39.07;4.50;;;;;;;18.57;nan;101261.31;6197285;23;20414;-92
2022/10/21 06:53:15;;;;;;;33.30;3.73;;;;;;;18.57;nan;101277.94;6197878;23;20460;-92
2022/10/21 06:55:46;;;;;;;35.50;4.00;;;;;;;18.58;nan;101284.31;6198684;23;20410;-91
2022/10/21 06:58:14;;;;;;;31.87;4.70;;;;;;;18.57;nan;101283.47;6197603;23;20406;-93
2022/10/21 07:00:43;;;;;;;26.67;3.93;;;;;;;18.59;nan;101289.66;6197675;23;20414;-93
2022/10/21 07:03:12;;;;;;;35.73;4.50;;;;;;;18.62;nan;101297.50;6197649;23;20572;-92
2022/10/21 07:05:40;;;;;;;39.17;5.27;;;;;;;18.59;nan;101275.81;6221776;23;20445;-93
2022/10/21 07:15:41;;;;;;;28.80;4.10;;;;;;;18.63;nan;101304.72;6248664;23;20362;-92
2022/10/21 07:18:10;;;;;;;35.00;4.33;;;;;;;18.61;nan;101290.28;6197762;23;20410;-94
2022/10/21 07:20:40;;;;;;;28.10;5.57;;;;;;;18.67;nan;101287.63;6222782;23;20802;-91
2022/10/21 07:23:11;;;;;;;31.53;5.40;;;;;;;18.77;nan;101299.00;6198524;23;20417;-93
2022/10/21 07:25:39;;;;;;;23.40;5.07;;;;;;;18.74;nan;101283.69;6197827;23;20438;-94
2022/10/21 07:28:07;;;;;;;26.97;4.43;;;;;;;18.73;nan;101282.00;6197757;23;20473;-93
2022/10/21 07:31:03;;;;;;;21.63;4.10;;;;;;;18.85;nan;101290.38;6196757;23;20886;-93
2022/10/21 07:33:32;;;;;;;19.03;3.63;;;;;;;18.90;nan;101290.50;6247465;23;20485;-94
2022/10/21 07:36:07;;;;;;;20.33;4.70;;;;;;;18.98;nan;101301.25;6197761;23;21019;-93
2022/10/21 07:38:35;;;;;;;23.37;4.40;;;;;;;19.04;nan;101292.00;6222851;23;20477;-93
2022/10/21 07:41:06;;;;;;;28.03;5.00;;;;;;;19.14;nan;101296.97;6223487;23;20482;-92
2022/10/21 07:43:34;;;;;;;25.07;5.07;;;;;;;19.20;nan;101290.47;6197848;23;20409;-93
2022/10/21 07:46:02;;;;;;;23.90;4.73;;;;;;;19.26;nan;101308.91;6197500;23;20932;-93
2022/10/21 07:48:32;;;;;;;16.73;4.53;;;;;;;19.28;nan;101312.28;6199010;23;20874;-94
2022/10/21 07:51:07;;;;;;;21.33;5.30;;;;;;;19.31;nan;101311.81;6197304;23;20490;-92
2022/10/21 07:53:35;;;;;;;38.17;4.97;;;;;;;19.37;nan;101310.88;6198368;23;20403;-93
2022/10/21 07:56:10;;;;;;;22.90;4.80;;;;;;;19.45;nan;101318.00;6197661;23;20487;-93
2022/10/21 07:58:38;;;;;;;23.00;4.60;;;;;;;19.49;nan;101328.38;6197991;23;20478;-94
2022/10/21 08:01:07;;;;;;;26.37;5.13;;;;;;;19.55;nan;101334.94;6196863;23;20415;-93
2022/10/21 08:03:36;;;;;;;26.47;3.90;;;;;;;19.51;nan;101334.56;6197339;23;20519;-94
2022/10/21 08:09:45;;;;;;;32.90;4.73;;;;;;;19.59;nan;101334.22;6248439;23;20354;-91
2022/10/21 08:12:17;;;;;;;25.93;4.90;;;;;;;19.65;nan;101337.94;6196772;23;20928;-94
2022/10/21 08:14:45;;;;;;;33.23;5.07;;;;;;;19.76;nan;101358.47;6246900;23;20486;-93
2022/10/21 08:17:16;;;;;;;26.50;4.70;;;;;;;19.79;nan;101364.41;6223399;23;20406;-93
2022/10/21 08:19:45;;;;;;;21.00;5.23;;;;;;;19.89;nan;101369.34;6224977;23;20500;-93
2022/10/21 08:22:13;;;;;;;34.93;5.10;;;;;;;19.96;nan;101364.53;6197500;23;20421;-93
2022/10/21 08:24:46;;;;;;;32.87;6.10;;;;;;;20.03;nan;101354.13;6198082;23;20415;-93
2022/10/21 08:27:13;;;;;;;31.70;6.00;;;;;;;20.15;nan;101370.78;6222824;23;20438;-94
2022/10/21 08:29:41;;;;;;;36.40;5.50;;;;;;;20.22;nan;101375.13;6197481;23;20488;-94
2022/10/21 08:32:09;;;;;;;24.50;5.50;;;;;;;20.27;nan;101371.63;6196820;23;20415;-94
2022/10/21 08:34:37;;;;;;;33.93;5.70;;;;;;;20.29;nan;101369.44;6197023;23;20411;-94
2022/10/21 08:37:04;;;;;;;33.13;5.30;;;;;;;20.36;nan;101381.28;6197335;23;20395;-94
2022/10/21 08:39:35;;;;;;;30.53;4.43;;;;;;;20.41;nan;101381.41;6196996;23;20406;-94
2022/10/21 08:42:16;;;;;;;43.50;5.07;;;;;;;20.46;nan;101383.47;6221267;23;20410;-93
2022/10/21 08:44:55;;;;;;;26.50;4.70;;;;;;;20.45;nan;101368.72;6221520;23;20430;-93
2022/10/21 08:47:29;;;;;;;33.43;4.80;;;;;;;20.52;nan;101372.22;6221601;23;20437;-93
2022/10/21 08:50:19;;;;;;;48.70;6.03;;;;;;;20.53;nan;101379.47;6246466;23;20418;-94
2022/10/21 08:52:54;;;;;;;31.00;3.57;;;;;;;20.55;nan;101382.00;6221473;23;20418;-92
2022/10/21 08:55:45;;;;;;;27.17;4.27;;;;;;;20.59;nan;101386.81;6198427;23;20409;-94
2022/10/21 08:58:19;;;;;;;28.20;4.73;;;;;;;20.61;nan;101379.09;6225811;23;20406;-94
2022/10/21 09:00:59;;;;;;;23.23;3.50;;;;;;;20.65;nan;101380.28;6198132;23;20482;-93
2022/10/21 09:03:54;;;;;;;31.07;5.47;;;;;;;20.75;nan;101395.50;6199780;23;20453;-94
2022/10/21 09:06:38;;;;;;;35.50;4.30;;;;;;;20.81;nan;101394.50;6247055;23;20446;-95
2022/10/21 09:09:32;;;;;;;31.47;3.80;;;;;;;20.90;nan;101401.38;6197892;23;20417;-94
2022/10/21 09:12:36;;;;;;;31.53;4.23;;;;;;;20.92;nan;101393.63;6246877;23;20411;-94
2022/10/21 09:15:23;;;;;;;35.53;4.20;;;;;;;20.99;nan;101400.72;6102187;23;20482;-93
2022/10/21 09:18:12;;;;;;;34.17;4.33;;;;;;;21.03;nan;101403.84;6126524;23;20402;-94
2022/10/21 09:21:21;;;;;;;32.50;4.40;;;;;;;21.11;nan;101400.69;6102022;23;20481;-93
2022/10/21 09:23:57;;;;;;;23.77;3.70;;;;;;;21.20;nan;101393.66;6075885;23;20492;-92
2022/10/21 09:26:36;;;;;;;35.10;4.97;;;;;;;21.30;nan;101405.00;6078180;23;20438;-93
2022/10/21 09:29:21;;;;;;;40.97;3.97;;;;;;;21.40;nan;101396.00;6102368;23;20397;-94
2022/10/21 09:31:50;;;;;;;20.77;4.33;;;;;;;21.45;nan;101389.69;6101749;23;20417;-94
2022/10/21 09:34:34;;;;;;;30.53;5.23;;;;;;;21.43;nan;101387.16;6103153;23;20410;-94
2022/10/21 09:37:02;;;;;;;37.27;4.47;;;;;;;21.45;nan;101392.47;5964754;23;20493;-94
2022/10/21 09:40:15;;;;;;;36.43;4.77;;;;;;;21.47;nan;101398.63;5987505;23;20909;-94
2022/10/21 09:42:43;;;;;;;41.90;5.80;;;;;;;21.42;nan;101387.41;6010842;23;20477;-93
2022/10/21 09:45:39;;;;;;;38.30;6.10;;;;;;;21.43;nan;101392.72;5988570;23;21015;-92
2022/10/21 09:48:19;;;;;;;32.43;6.10;;;;;;;21.50;nan;101414.81;5964720;23;20441;-94
2022/10/21 09:50:51;;;;;;;34.97;4.10;;;;;;;21.46;nan;101410.84;6010855;23;20913;-93
2022/10/21 09:53:32;;;;;;;26.43;5.40;;;;;;;21.51;nan;101422.06;6075617;23;20916;-93
2022/10/21 09:56:02;;;;;;;42.17;4.40;;;;;;;21.54;nan;101404.88;6125947;23;20458;-93
2022/10/21 09:58:35;;;;;;;23.17;3.70;;;;;;;21.58;nan;101406.91;6081237;23;20441;-93
2022/10/21 10:01:04;;;;;;;26.57;4.70;;;;;;;21.61;nan;101411.97;6157230;23;20410;-94
2022/10/21 10:03:44;;;;;;;36.73;4.87;;;;;;;21.68;nan;101414.59;6196355;23;20513;-92
2022/10/21 10:06:12;;;;;;;30.70;5.23;;;;;;;21.76;nan;101408.59;6197840;23;20486;-94
2022/10/21 10:08:41;;;;;;;28.83;5.63;;;;;;;21.88;nan;101409.38;6220785;23;20417;-92
2022/10/21 10:11:10;;;;;;;28.43;4.10;;;;;;;22.02;nan;101404.34;6197235;23;20960;-94
2022/10/21 10:17:37;;;;;;;40.50;4.90;;;;;;;22.18;nan;101388.72;6247544;23;20374;-92
2022/10/21 10:20:15;;;;;;;33.07;4.50;;;;;;;22.19;nan;101390.41;6155366;23;20515;-94
2022/10/21 10:22:58;;;;;;;23.17;4.27;;;;;;;22.35;nan;101403.47;6107418;23;20724;-92
2022/10/21 10:25:35;;;;;;;33.47;4.17;;;;;;;22.51;nan;101413.75;6155394;23;20409;-94
2022/10/21 10:28:07;;;;;;;31.43;4.27;;;;;;;22.58;nan;101413.56;6084211;23;20523;-92
2022/10/21 10:30:41;;;;;;;37.57;4.73;;;;;;;22.57;nan;101412.69;6107492;23;20476;-93
2022/10/21 10:33:12;;;;;;;33.70;3.60;;;;;;;22.53;nan;101424.63;6130770;23;20412;-93
2022/10/21 10:35:47;;;;;;;32.77;4.43;;;;;;;22.45;nan;101423.13;6130787;23;20410;-92
2022/10/21 10:38:32;;;;;;;26.10;4.27;;;;;;;22.40;nan;101409.97;6107362;23;20400;-93
2022/10/21 10:41:11;;;;;;;27.83;3.70;;;;;;;22.41;nan;101424.72;6109634;23;20417;-92
2022/10/21 10:43:43;;;;;;;26.20;4.47;;;;;;;22.39;nan;101430.56;6137717;23;20428;-92
2022/10/21 10:46:24;;;;;;;25.27;3.63;;;;;;;22.36;nan;101416.28;6246737;23;20394;-94
2022/10/21 10:48:52;;;;;;;21.47;4.30;;;;;;;22.33;nan;101400.94;6223284;23;20481;-93
2022/10/21 10:51:45;;;;;;;20.87;3.50;;;;;;;22.36;nan;101407.94;6083427;23;20417;-92
2022/10/21 10:54:26;;;;;;;23.30;3.33;;;;;;;22.36;nan;101391.22;6043811;23;20416;-94
2022/10/21 10:57:19;;;;;;;28.77;4.87;;;;;;;22.41;nan;101385.72;6045413;23;20396;-93
2022/10/21 11:00:04;;;;;;;30.23;3.93;;;;;;;22.50;nan;101378.63;6048131;23;20400;-93
2022/10/21 11:02:41;;;;;;;30.27;3.40;;;;;;;22.62;nan;101379.34;6047185;23;20420;-94
2022/10/21 11:05:36;;;;;;;25.13;3.77;;;;;;;22.84;nan;101386.91;6045305;23;20408;-92
2022/10/21 11:08:15;;;;;;;25.93;3.87;;;;;;;22.92;nan;101387.28;6044085;23;20836;-94
2022/10/21 11:10:55;;;;;;;24.70;3.47;;;;;;;23.02;nan;101372.63;6132899;23;20409;-92
2022/10/21 11:13:24;;;;;;;24.87;3.57;;;;;;;23.17;nan;101371.94;6109474;23;20469;-94
2022/10/21 11:16:10;;;;;;;16.40;3.87;;;;;;;23.42;nan;101375.84;6108569;23;20419;-94
2022/10/21 11:19:23;;;;;;;34.60;4.90;;;;;;;23.62;nan;101361.28;6109892;23;20405;-94
2022/10/21 11:22:12;;;;;;;25.30;3.90;;;;;;;23.85;nan;101376.00;6023676;23;20548;-94
2022/10/21 11:25:10;;;;;;;27.87;4.03;;;;;;;23.99;nan;101375.28;6040720;23;20795;-92
2022/10/21 11:27:42;;;;;;;16.60;3.10;;;;;;;24.06;nan;101367.47;6132732;23;20520;-93
2022/10/21 11:30:20;;;;;;;19.03;3.47;;;;;;;24.05;nan;101371.38;6135656;23;20476;-92
2022/10/21 11:33:19;;;;;;;22.03;3.30;;;;;;;24.00;nan;101368.56;6198901;23;20493;-94
2022/10/21 11:35:50;;;;;;;27.00;3.60;;;;;;;23.96;nan;101361.84;6247691;23;20409;-93
2022/10/21 11:38:36;;;;;;;28.97;3.40;;;;;;;23.89;nan;101372.38;6247914;23;20409;-94
2022/10/21 11:41:44;;;;;;;28.63;5.17;;;;;;;23.79;nan;101372.31;6247480;23;20415;-93
2022/10/21 11:55:42;;;;;;;22.13;3.33;;;;;;;23.57;nan;101352.00;6159261;23;20384;-92
2022/10/21 11:58:33;;;;;;;19.87;3.90;;;;;;;23.64;nan;101353.50;6132539;23;20488;-95
2022/10/21 12:01:06;;;;;;;29.90;3.67;;;;;;;23.67;nan;101340.91;6097154;23;20417;-92
2022/10/21 12:03:52;;;;;;;28.43;3.53;;;;;;;23.81;nan;101347.75;6073257;23;20434;-94
2022/10/21 12:06:24;;;;;;;23.00;3.00;;;;;;;23.84;nan;101363.16;6073929;23;20451;-92
2022/10/21 12:09:05;;;;;;;27.20;3.67;;;;;;;23.74;nan;101352.72;6074205;23;20408;-92
2022/10/21 12:11:47;;;;;;;18.87;4.17;;;;;;;23.69;nan;101350.72;6073666;23;20479;-94
2022/10/21 12:14:35;;;;;;;23.43;3.50;;;;;;;23.65;nan;101360.75;6067185;23;20457;-94
2022/10/21 12:17:07;;;;;;;23.47;3.47;;;;;;;23.54;nan;101346.97;6136259;23;20407;-95
2022/10/21 12:19:35;;;;;;;34.17;3.90;;;;;;;23.49;nan;101350.50;6137403;23;20974;-92
2022/10/21 12:22:04;;;;;;;25.33;4.13;;;;;;;23.35;nan;101361.25;6112879;23;20459;-92
2022/10/21 12:24:38;;;;;;;20.17;3.40;;;;;;;23.24;nan;101341.91;6137001;23;20468;-94
2022/10/21 12:27:21;;;;;;;19.47;2.80;;;;;;;23.23;nan;101356.97;6161798;23;20519;-94
2022/10/21 12:30:00;;;;;;;24.43;3.27;;;;;;;23.27;nan;101342.22;6161491;23;20741;-94
2022/10/21 12:32:36;;;;;;;31.30;3.90;;;;;;;23.41;nan;101309.16;6161401;23;20930;-92
2022/10/21 12:35:07;;;;;;;20.97;3.20;;;;;;;23.65;nan;101316.09;6138348;23;20411;-94
2022/10/21 12:37:54;;;;;;;16.27;3.23;;;;;;;23.95;nan;101315.47;6158215;23;20399;-92
2022/10/21 12:40:24;;;;;;;20.27;4.00;;;;;;;24.45;nan;101319.69;6224313;23;20403;-94
2022/10/21 12:43:01;;;;;;;33.67;3.93;;;;;;;24.77;nan;101312.00;6247543;22;20421;-92
2022/10/21 12:45:31;;;;;;;21.23;3.10;;;;;;;25.04;nan;101311.81;6246669;23;20869;-92
2022/10/21 12:47:58;;;;;;;15.90;2.97;;;;;;;25.41;nan;101328.38;6197365;23;20769;-94
2022/10/21 12:54:16;;;;;;;20.53;2.70;;;;;;;25.54;nan;101327.00;6248199;23;20419;-92
2022/10/21 12:56:48;;;;;;;27.33;3.90;;;;;;;25.44;nan;101316.63;6222885;23;20399;-93